Latest Weather Observations for Murrurundi Gap

IDN60801

Issued at 2:52 pm EST Sunday 5 April 2020 (issued every 10 minutes, with the page automatically refreshed every 10 minutes)

About weather observations | Map of weather stations | Latest weather observations for NSW | Other Formats
Station Details ID: 061392 Name: MURRURUNDI GAP AWS Lat: -31.74 Lon: 150.79 Height: 729.4 m
Data from the previous 72 hours. | See also: Recent months at Murrurundi Gap
Date/Time
EST
Temp
°C
App
Temp
°C
Dew
Point
°C
Rel
Hum
%
Delta-T
°C
Wind Press
QNH
hPa
Press
MSL
hPa
Rain since
9am
mm
Dir  Spd
km/h
Gust
km/h
Spd
kts
Gust
kts
05/02:30pm 17.0 11.8 7.4 53 5.0 NW 24 32 13 17 1016.0 1013.7 0.0
05/02:00pm 16.8 11.6 7.4 54 4.9 WNW 24 32 13 17 1016.2 1013.9 0.0
05/01:30pm 16.5 12.1 7.4 55 4.7 NNW 20 32 11 17 1016.5 1014.3 0.0
05/01:00pm 16.1 10.8 6.8 54 4.8 NW 24 33 13 18 1016.6 1014.4 0.0
05/12:30pm 16.6 12.5 8.6 59 4.3 NW 20 30 11 16 1017.0 1014.8 0.0
05/12:00pm 15.6 11.2 7.4 58 4.2 NW 20 32 11 17 1017.5 1015.2 0.0
05/11:30am 15.9 11.4 7.1 56 4.5 NW 20 26 11 14 1017.8 1015.6 0.0
05/11:00am 15.3 11.0 7.1 58 4.2 NW 19 24 10 13 1018.0 1015.8 0.0
05/10:30am 14.8 11.1 6.4 57 4.2 NW 15 24 8 13 1018.0 1015.8 0.0
05/10:00am 14.9 10.8 6.2 56 4.4 NW 17 20 9 11 1018.0 1015.8 0.0
05/09:30am 14.3 11.2 7.1 62 3.7 NW 13 19 7 10 1018.1 1015.9 0.0
05/09:00am 13.5 10.1 5.9 60 3.7 NNW 13 19 7 10 1018.1 1015.9 0.6
05/08:30am 12.7 9.4 4.7 58 3.8 NW 11 15 6 8 1018.1 1015.9 0.6
05/08:00am 12.2 9.5 5.4 63 3.3 NNW 9 11 5 6 1017.8 1015.6 0.6
05/07:30am 11.2 8.9 4.9 65 3.0 NW 6 7 3 4 1017.4 1015.1 0.6
05/07:00am 10.5 8.9 4.4 66 2.8 WSW 2 6 1 3 1017.4 1015.1 0.6
05/06:30am 9.9 8.6 4.1 67 2.7 CALM 0 0 0 0 1016.9 1014.7 0.6
05/06:00am 10.1 9.0 4.9 70 2.4 CALM 0 0 0 0 1016.6 1014.4 0.6
05/05:30am 10.0 8.8 4.6 69 2.5 CALM 0 0 0 0 1016.4 1014.1 0.6
05/05:00am 10.1 9.0 5.1 71 2.4 CALM 0 0 0 0 1016.0 1013.7 0.6
05/04:30am 10.6 9.6 5.8 72 2.3 CALM 0 0 0 0 1015.4 1013.2 0.6
05/04:00am 10.5 8.4 5.9 73 2.2 NNW 6 7 3 4 1015.3 1013.1 0.6
05/03:30am 10.6 8.4 6.4 75 2.1 NW 7 11 4 6 1015.2 1012.9 0.6
05/03:00am 10.6 8.6 7.3 80 1.6 NW 7 11 4 6 1014.9 1012.6 0.6
05/03:30am 10.7 8.4 7.4 80 1.6 NW 9 13 5 7 1014.8 1012.5 0.6
05/03:00am 11.1 8.4 7.4 78 1.9 NW 11 15 6 8 1014.9 1012.6 0.6
05/02:30am 11.1 8.5 7.8 80 1.7 NNW 11 13 6 7 1014.9 1012.6 0.6
05/02:00am 10.7 8.4 7.6 81 1.6 NW 9 13 5 7 1014.8 1012.5 0.6
05/01:30am 10.5 7.4 7.4 81 1.5 NW 13 15 7 8 1014.7 1012.4 0.6
05/01:00am 10.6 6.7 7.3 80 1.6 NW 17 19 9 10 1014.4 1012.1 0.6
05/12:30am 10.7 6.5 7.4 80 1.6 NW 19 20 10 11 1014.3 1012.0 0.6
05/12:00am 10.8 6.6 7.3 79 1.7 WNW 19 20 10 11 1014.3 1012.0 0.6
 
Date/Time
EST
Temp
°C
App
Temp
°C
Dew
Point
°C
Rel
Hum
%
Delta-T
°C
Wind Press
QNH
hPa
Press
MSL
hPa
Rain since
9am
mm
Dir  Spd
km/h
Gust
km/h
Spd
kts
Gust
kts
04/11:30pm 10.9 7.1 7.6 80 1.7 NW 17 20 9 11 1014.4 1012.1 0.6
04/11:00pm 11.2 7.5 7.9 80 1.7 NW 17 20 9 11 1014.4 1012.1 0.6
04/10:30pm 11.1 7.4 8.1 82 1.5 NW 17 20 9 11 1014.4 1012.1 0.6
04/10:00pm 11.9 7.8 8.0 77 2.0 NW 19 22 10 12 1014.0 1011.7 0.6
04/09:30pm 11.9 7.8 8.6 80 1.7 NW 20 26 11 14 1013.4 1011.1 0.6
04/09:00pm 12.6 7.8 8.7 77 2.0 NW 24 28 13 15 1012.9 1010.5 0.6
04/08:30pm 13.5 8.6 8.4 71 2.6 NW 24 30 13 16 1012.4 1010.1 0.6
04/08:00pm 13.5 8.2 8.4 71 2.7 NW 26 33 14 18 1011.8 1009.5 0.6
04/07:30pm 14.0 8.3 8.2 68 3.0 NW 28 39 15 21 1010.9 1008.6 0.6
04/07:00pm 14.8 8.3 8.3 65 3.4 NW 32 41 17 22 1010.4 1008.0 0.6
04/06:30pm 15.9 9.2 8.2 60 4.0 NW 33 44 18 24 1009.7 1007.4 0.6
04/06:00pm 16.9 10.2 8.1 56 4.7 NW 33 44 18 24 1009.3 1007.0 0.6
04/05:30pm 17.5 9.5 7.5 52 5.2 NW 39 46 21 25 1008.7 1006.3 0.6
04/05:00pm 18.0 10.0 7.4 50 5.6 NW 39 50 21 27 1008.3 1006.0 0.6
04/04:30pm 18.5 8.9 3.6 37 7.3 NW 43 59 23 32 1007.7 1005.3 0.6
04/04:07pm 18.8 8.1 6.6 45 6.3 NW 52 70 28 38 1007.3 1004.9 0.6
04/04:00pm 18.9 7.9 6.7 45 6.4 NW 54 69 29 37 1006.8 1004.5 0.6
04/03:30pm 19.4 9.5 8.4 49 5.9 NW 50 69 27 37 1007.1 1004.7 0.6
04/03:24pm 19.3 9.3 8.0 48 6.0 NW 50 69 27 37 1007.0 1004.6 0.6
04/03:00pm 19.5 9.1 9.1 51 5.7 NW 54 69 29 37 1006.7 1004.3 0.6
04/02:30pm 19.8 9.7 8.8 49 6.0 NW 52 72 28 39 1006.2 1003.8 0.6
04/02:27pm 19.9 10.2 8.9 49 6.0 NW 50 69 27 37 1006.5 1004.1 0.6
04/02:00pm 19.8 9.2 10.0 53 5.5 NW 56 70 30 38 1006.3 1003.9 0.6
04/01:30pm 19.9 10.2 10.6 55 5.2 NW 52 74 28 40 1006.1 1003.7 0.6
04/01:00pm 19.9 10.8 13.8 68 3.6 NW 54 74 29 40 1006.4 1004.0 0.6
04/12:37pm 19.5 10.7 14.5 73 3.0 NW 54 72 29 39 1006.4 1004.0 0.6
04/12:30pm 19.1 9.8 14.1 73 3.0 NW 56 72 30 39 1006.2 1003.8 0.6
04/12:00pm 19.3 11.9 16.2 82 1.9 NW 50 65 27 35 1006.0 1003.6 0.6
04/11:34am 18.2 12.2 16.9 92 0.8 NW 44 63 24 34 1006.0 1003.6 0.6
04/11:30am 18.1 12.3 17.3 95 0.5 NW 44 57 24 31 1006.1 1003.7 0.6
04/11:08am 17.6 11.4 17.4 99 0.1 NW 46 65 25 35 1006.0 1003.6 0.6
04/11:00am 17.4 10.8 17.4 100 0.0 NW 48 61 26 33 1005.8 1003.4 0.6
04/10:36am 18.0 11.3 18.0 100 0.0 NW 50 69 27 37 1005.8 1003.4 0.2
04/10:30am 17.7 10.5 17.7 100 0.0 NW 52 69 28 37 1005.6 1003.1 0.2
04/10:04am 17.1 8.9 17.1 100 0.0 NW 56 74 30 40 1005.5 1003.0 0.2
04/10:00am 17.0 8.6 17.0 100 0.0 NW 57 74 31 40 1005.0 1002.6 0.2
04/09:30am 17.1 7.9 17.1 100 0.0 NW 61 89 33 48 1004.5 1002.1 0.0
04/09:00am 17.1 7.2 17.1 100 0.0 NW 65 91 35 49 1003.8 1001.4 28.2
04/08:30am 17.1 6.4 17.1 100 0.0 NW 69 98 37 53 1003.0 1000.5 26.6
04/08:00am 17.0 7.0 17.0 100 0.0 NW 65 83 35 45 1002.8 1000.3 22.2
04/07:30am 17.2 7.3 17.2 100 0.0 NW 65 83 35 45 1002.0 999.6 19.6
04/07:03am 17.2 8.8 17.2 100 0.0 NW 57 80 31 43 1001.9 999.4 19.6
04/07:00am 17.0 9.1 17.0 100 0.0 NW 54 67 29 36 1002.2 999.8 19.6
04/06:47am 16.9 10.5 16.9 100 0.0 NW 46 67 25 36 1002.4 1000.0 18.8
04/06:46am 16.7 10.2 16.7 100 0.0 NW 46 63 25 34 1002.7 1000.2 18.8
04/06:39am 16.8 9.6 16.8 100 0.0 NW 50 69 27 37 1002.8 1000.3 18.6
04/06:30am 16.9 8.0 16.9 100 0.0 NW 59 76 32 41 1002.4 1000.0 18.6
04/06:28am 16.9 8.0 16.7 99 0.1 NW 59 76 32 41 1002.3 999.9 18.4
04/06:00am 17.2 8.0 17.0 99 0.1 NW 61 83 33 45 1001.8 999.3 18.0
04/05:38am 16.9 9.0 16.9 100 0.0 NW 54 72 29 39 1002.9 1000.4 18.0
04/05:30am 17.0 8.8 17.0 100 0.0 NW 56 70 30 38 1003.0 1000.5 18.0
04/05:24am 17.1 9.3 17.1 100 0.0 NW 54 70 29 38 1002.9 1000.4 17.8
04/05:20am 17.1 10.0 17.1 100 0.0 NW 50 69 27 37 1002.9 1000.4 17.6
04/05:00am 16.3 9.3 16.3 100 0.0 NW 48 57 26 31 1003.3 1000.9 17.4
04/04:32am 16.6 8.6 16.6 100 0.0 NW 54 72 29 39 1003.2 1000.8 16.2
04/04:30am 16.6 8.1 16.4 99 0.1 NW 56 72 30 39 1003.1 1000.6 16.0
04/04:28am 16.7 8.3 16.5 99 0.1 NW 56 72 30 39 1003.0 1000.5 15.8
04/04:23am 16.9 9.3 16.6 98 0.2 NW 52 72 28 39 1002.9 1000.4 15.8
04/04:16am 16.7 9.4 16.4 98 0.2 NW 50 65 27 35 1003.2 1000.8 15.8
04/04:11am 16.7 9.3 16.2 97 0.3 NW 50 65 27 35 1003.4 1001.0 15.8
04/04:00am 17.3 9.3 15.8 91 0.9 NW 52 67 28 36 1003.1 1000.6 15.4
04/03:30am 17.6 9.2 15.6 88 1.2 NW 54 65 29 35 1003.2 1000.8 15.4
04/03:00am 17.6 9.7 15.9 90 1.0 NW 52 65 28 35 1003.6 1001.2 15.4
04/02:30am 17.3 9.9 16.2 93 0.7 NW 50 57 27 31 1004.2 1001.7 15.4
04/02:00am 17.4 10.8 16.4 94 0.6 NW 46 59 25 32 1005.0 1002.6 15.4
04/01:58am 17.3 10.7 16.3 94 0.6 NW 46 56 25 30 1005.1 1002.7 15.4
04/01:30am 17.5 11.0 16.5 94 0.6 NW 46 59 25 32 1005.6 1003.1 15.4
04/01:11am 17.6 11.6 16.5 93 0.7 NW 43 52 23 28 1006.0 1003.6 15.4
04/01:00am 17.6 12.8 16.6 94 0.6 NW 37 54 20 29 1006.2 1003.8 15.4
04/12:30am 17.4 13.4 16.6 95 0.5 NW 33 43 18 23 1006.7 1004.3 15.4
04/12:13am 17.1 12.4 16.8 98 0.2 NW 37 46 20 25 1007.1 1004.7 15.4
04/12:00am 16.9 13.0 16.9 100 0.0 NW 33 39 18 21 1007.3 1004.9 15.4
 
Date/Time
EST
Temp
°C
App
Temp
°C
Dew
Point
°C
Rel
Hum
%
Delta-T
°C
Wind Press
QNH
hPa
Press
MSL
hPa
Rain since
9am
mm
Dir  Spd
km/h
Gust
km/h
Spd
kts
Gust
kts
03/11:30pm 16.9 12.2 16.9 100 0.0 NW 37 48 20 26 1007.9 1005.5 15.4
03/11:00pm 17.0 11.0 17.0 100 0.0 NW 44 54 24 29 1008.0 1005.6 15.4
03/10:30pm 17.2 10.9 17.2 100 0.0 NW 46 56 25 30 1008.3 1006.0 15.4
03/10:00pm 17.3 9.9 17.3 100 0.0 NW 52 61 28 33 1008.1 1005.8 15.4
03/09:54pm 17.3 9.9 17.3 100 0.0 NW 52 63 28 34 1008.2 1005.9 15.4
03/09:30pm 17.2 9.4 17.2 100 0.0 NW 54 65 29 35 1007.8 1005.4 15.4
03/09:13pm 17.3 9.2 17.3 100 0.0 NW 56 67 30 36 1008.0 1005.6 15.4
03/09:09pm 17.3 9.2 17.3 100 0.0 NW 56 67 30 36 1008.0 1005.6 15.4
03/09:03pm 17.3 9.2 17.3 100 0.0 NW 56 74 30 40 1007.9 1005.5 15.4
03/09:00pm 17.3 9.0 17.3 100 0.0 NW 57 74 31 40 1008.1 1005.8 15.4
03/08:30pm 17.2 9.4 17.2 100 0.0 NW 54 69 29 37 1008.2 1005.9 13.8
03/08:16pm 17.3 9.6 17.3 100 0.0 NW 54 72 29 39 1007.7 1005.3 12.6
03/08:00pm 17.4 10.5 17.4 100 0.0 NW 50 61 27 33 1007.8 1005.4 11.6
03/07:30pm 17.4 10.5 17.4 100 0.0 NW 50 63 27 34 1007.8 1005.4 10.4
03/07:00pm 17.4 10.8 17.4 100 0.0 NW 48 61 26 33 1007.8 1005.4 10.2
03/06:30pm 17.5 11.0 17.5 100 0.0 NW 48 61 26 33 1008.1 1005.8 9.8
03/06:00pm 17.4 9.7 17.4 100 0.0 NW 54 63 29 34 1008.1 1005.8 9.6
03/05:30pm 17.4 9.7 17.4 100 0.0 NW 54 67 29 36 1008.3 1006.0 9.2
03/05:00pm 17.4 9.3 17.4 100 0.0 NW 56 74 30 40 1008.0 1005.6 9.2
03/04:58pm 17.4 9.3 17.4 100 0.0 NW 56 74 30 40 1008.1 1005.8 9.2
03/04:30pm 17.4 9.1 17.4 100 0.0 NW 57 70 31 38 1008.0 1005.6 8.8
03/04:16pm 17.3 9.0 17.3 100 0.0 NW 57 76 31 41 1007.7 1005.3 8.8
03/04:00pm 17.2 8.8 17.2 100 0.0 NW 57 69 31 37 1008.1 1005.8 8.6
03/03:30pm 17.2 10.6 17.2 100 0.0 NW 48 69 26 37 1008.2 1005.9 8.2
03/03:00pm 17.2 12.3 17.2 100 0.0 NW 39 52 21 28 1009.2 1006.8 5.6
03/02:30pm 17.5 13.5 17.5 100 0.0 NW 35 48 19 26 1009.9 1007.5 4.0
03/02:00pm 17.6 12.8 17.6 100 0.0 NW 39 52 21 28 1010.5 1008.2 2.6
03/01:30pm 17.8 14.4 17.8 100 0.0 NW 32 39 17 21 1011.0 1008.7 1.6
03/01:09pm 18.2 15.2 17.7 97 0.3 NW 30 39 16 21 1011.5 1009.1 0.4
03/01:00pm 18.9 16.1 17.4 91 0.9 NW 28 35 15 19 1011.6 1009.2 0.0
03/12:36pm 18.8 16.4 17.3 91 0.9 NW 26 32 14 17 1012.0 1009.7 0.0
03/12:32pm 18.9 16.5 17.4 91 0.9 NW 26 32 14 17 1012.1 1009.8 0.0
03/12:30pm 18.9 16.5 17.4 91 0.9 NW 26 32 14 17 1012.2 1009.9 0.0
03/12:00pm 18.6 17.3 17.3 92 0.8 NW 20 28 11 15 1012.6 1010.3 0.0
03/11:30am 18.8 16.8 17.3 91 0.9 NW 24 32 13 17 1013.3 1011.0 0.0
03/11:00am 18.5 16.8 17.2 92 0.8 NW 22 32 12 17 1013.2 1010.9 0.0
03/10:46am 17.6 15.2 16.5 93 0.7 NW 24 30 13 16 1013.3 1011.0 0.0
03/10:30am 17.1 14.3 16.3 95 0.5 NW 26 30 14 16 1013.3 1011.0 0.0
03/10:01am 17.2 16.1 17.2 100 0.0 NW 19 24 10 13 1013.3 1011.0 0.0
03/10:00am 17.2 16.1 17.2 100 0.0 NW 19 24 10 13 1013.3 1011.0 0.0
03/09:30am 16.7 15.4 16.7 100 0.0 NW 19 22 10 12 1013.4 1011.1 0.0
03/09:08am 16.6 15.2 16.6 100 0.0 NW 19 22 10 12 1013.4 1011.1 0.0
03/09:00am 16.4 14.9 16.4 100 0.0 NW 19 22 10 12 1013.4 1011.1 8.4
03/08:30am 16.3 14.8 16.3 100 0.0 NW 19 22 10 12 1013.4 1011.1 8.4
03/08:00am 16.2 13.7 16.2 100 0.0 NW 24 30 13 16 1013.3 1011.0 8.4
03/07:30am 16.1 14.0 16.1 100 0.0 NW 22 26 12 14 1013.2 1010.9 8.4
03/07:00am 16.1 14.5 16.1 100 0.0 NW 19 24 10 13 1013.2 1010.9 8.4
03/06:30am 16.2 13.7 16.2 100 0.0 NW 24 28 13 15 1013.1 1010.8 8.4
03/06:00am 16.1 13.6 16.1 100 0.0 NW 24 30 13 16 1013.0 1010.7 8.4
03/05:30am 16.1 13.6 16.1 100 0.0 NW 24 28 13 15 1012.7 1010.4 8.4
03/05:00am 16.1 13.6 16.1 100 0.0 NW 24 28 13 15 1012.9 1010.5 8.4
03/04:30am 16.1 13.6 16.1 100 0.0 NW 24 28 13 15 1012.7 1010.4 8.4
03/04:00am 16.2 14.1 16.2 100 0.0 NW 22 26 12 14 1012.9 1010.5 8.4
03/03:30am 16.2 14.1 16.2 100 0.0 NW 22 28 12 15 1013.2 1010.9 8.4
03/03:00am 16.1 14.0 16.1 100 0.0 NW 22 28 12 15 1013.3 1011.0 8.4
03/02:30am 16.1 12.8 16.1 100 0.0 NW 28 32 15 17 1013.4 1011.1 8.4
03/02:00am 16.1 12.4 16.1 100 0.0 NW 30 37 16 20 1013.6 1011.3 8.4
03/01:30am 16.2 13.0 16.2 100 0.0 NW 28 35 15 19 1013.7 1011.4 8.4
03/01:00am 16.2 11.6 16.2 100 0.0 NW 35 43 19 23 1013.5 1011.2 8.4
03/12:30am 16.3 12.1 16.3 100 0.0 NW 33 41 18 22 1013.7 1011.4 8.4
03/12:00am 16.4 11.9 16.4 100 0.0 NW 35 43 19 23 1013.9 1011.6 8.4
 
Date/Time
EST
Temp
°C
App
Temp
°C
Dew
Point
°C
Rel
Hum
%
Delta-T
°C
Wind Press
QNH
hPa
Press
MSL
hPa
Rain since
9am
mm
Dir  Spd
km/h
Gust
km/h
Spd
kts
Gust
kts
02/11:30pm 16.4 12.5 16.4 100 0.0 NNW 32 41 17 22 1014.6 1012.3 8.4
02/11:00pm 16.4 12.5 16.4 100 0.0 NW 32 39 17 21 1014.9 1012.6 8.4
02/10:30pm 16.3 12.7 16.3 100 0.0 NW 30 39 16 21 1015.1 1012.8 8.4
02/10:00pm 16.3 13.1 16.3 100 0.0 NW 28 35 15 19 1015.1 1012.8 8.2
02/09:30pm 16.2 14.1 16.2 100 0.0 NW 22 26 12 14 1015.2 1012.9 8.2
02/09:00pm 16.1 14.0 16.1 100 0.0 NW 22 28 12 15 1015.1 1012.8 8.2
02/08:30pm 16.0 13.4 16.0 100 0.0 WNW 24 32 13 17 1015.0 1012.7 8.0
02/08:00pm 16.1 13.2 16.1 100 0.0 WNW 26 35 14 19 1014.6 1012.3 7.0
02/07:30pm 16.2 13.7 16.2 100 0.0 NW 24 30 13 16 1014.5 1012.2 6.4
02/07:21pm 16.1 13.2 16.1 100 0.0 NW 26 35 14 19 1014.4 1012.1 6.0
02/07:00pm 16.1 14.5 16.1 100 0.0 NW 19 26 10 14 1014.3 1012.0 5.8
02/06:42pm 16.2 15.8 16.2 100 0.0 NNW 13 17 7 9 1014.3 1012.0 5.4
02/06:41pm 16.2 15.8 16.2 100 0.0 NNW 13 19 7 10 1014.1 1011.9 5.4
02/06:30pm 16.2 15.0 16.2 100 0.0 NW 17 22 9 12 1014.3 1012.0 5.0
02/06:00pm 16.2 15.0 16.2 100 0.0 NW 17 22 9 12 1014.5 1012.2 3.8
02/05:43pm 16.2 14.7 16.2 100 0.0 NW 19 22 10 12 1014.7 1012.4 2.0
02/05:30pm 16.3 14.6 16.3 100 0.0 NW 20 24 11 13 1014.7 1012.4 2.0
02/05:00pm 16.3 14.6 16.3 100 0.0 NW 20 24 11 13 1014.7 1012.4 1.4
02/04:31pm 16.5 13.8 16.5 100 0.0 NW 26 32 14 17 1015.1 1012.8 0.6
02/04:30pm 16.5 13.8 16.5 100 0.0 NW 26 32 14 17 1015.1 1012.8 0.6
02/04:00pm 17.1 15.3 16.9 99 0.1 NW 22 30 12 16 1015.2 1012.9 0.2

Other formats

Comma delimited format used in spreadsheet applications
http://www.bom.gov.au/fwo/IDN60801/IDN60801.95747.axf

JavaScript Object Notation format (JSON) in row-major order
http://www.bom.gov.au/fwo/IDN60801/IDN60801.95747.json

Data quality

Most of these data are generated automatically and are frequently updated. Quality checks on data are not normally performed. It is possible for incorrect values to appear. Refer to information at About Latest Weather Observations and please check the disclaimer before using these data.